• Join FlightAware (Why Join?)
  • Login
  • US Flag 
03:06AM EST


 

Airport Tracker/Info


-or-


 

Live Flight TrackerFlight Track Log ✈ JBU33 ✈ 14-Aug-2013 ✈ KBTV - KJFK

Flight Track Log - Related Links

Times and Time Zones

All times are in EDT time to prevent confusion due to time zone crossing. See the JBU33 flight status page for this flight to view local times or setup timezone preferences in your user account.

Time Position Orientation Groundspeed Altitude Reporting Facility
EDT Latitude Longitude Course Direction KTS MPH feet Rate Location/Type
01:21PM 44.4689 -73.2372 193° South 251 289 3,800  Level Boston Center
01:22PM 44.2362 -73.2284 190° South  Level FlightAware Approximate
01:22PM 44.3897 -73.2506 187° South 269 310 7,200  Level Boston Center
01:23PM 44.1624 -73.2641 195° South  Level FlightAware Approximate
01:23PM 44.3164 -73.2931 203° Southwest 282 325 10,600  Level Boston Center
01:24PM 44.0859 -73.2928 195° South  Level FlightAware Approximate
01:24PM 44.2392 -73.3297 199° South 299 344 13,000  Level Boston Center
01:25PM 44.0090 -73.3193 194° South  Level FlightAware Approximate
01:25PM 44.1369 -73.3514 189° South 343 395 15,700  Level Boston Center
01:26PM 43.9319 -73.3449 193° South  Level FlightAware Approximate
01:26PM 44.0386 -73.3844 194° South 361 415 18,500  Level Boston Center
01:27PM 43.9278 -73.4231 194° South 381 438 22,700 2,820 Climbing Boston Center
01:28PM 43.8317 -73.4561 194° South 365 420 24,200 1,620 Climbing Boston Center
01:29PM 43.7356 -73.4861 193° South 357 411 26,000 840 Climbing Boston Center
01:30PM 43.6519 -73.5103 192° South 357 411 26,000  Level Boston Center
01:31PM 43.5600 -73.5403 193° South 352 405 26,000  Level Boston Center
01:32PM 43.4661 -73.5728 194° South 352 405 26,000  Level Boston Center
01:33PM 43.3761 -73.5997 192° South 347 399 26,000  Level Boston Center
01:34PM 43.2819 -73.6322 194° South 347 399 26,000  Level Boston Center
01:35PM 43.1858 -73.6644 194° South 347 399 26,000  Level Boston Center
01:36PM 43.0769 -73.6992 193° South 377 434 26,000  Level Boston Center
01:37PM 42.9703 -73.7339 193° South 389 448 26,000  Level Boston Center
01:38PM 42.8658 -73.7658 193° South 395 455 26,000  Level Boston Center
01:39PM 42.7633 -73.8003 194° South 395 455 26,000  Level Boston Center
01:40PM 42.6506 -73.8092 183° South 395 455 26,000  Level Boston Center
01:41PM 42.5422 -73.8125 181° South 400 460 26,000  Level Boston Center
01:42PM 42.4317 -73.8156 181° South 400 460 26,000  Level Boston Center
01:43PM 42.3192 -73.8158 180° South 405 466 26,000  Level Boston Center
01:44PM 42.2086 -73.8164 180° South 405 466 26,000  Level Boston Center
01:45PM 42.1022 -73.8197 181° South 405 466 26,000  Level Boston Center
01:46PM 41.9961 -73.8200 180° South 399 459 26,000  Level Boston Center
01:47PM 41.8856 -73.8233 181° South 399 459 26,000  Level Boston Center
01:48PM 41.7731 -73.8208 179° South 387 445 26,000 -780 Level Boston Center
01:50PM 41.5442 -73.9253 199° South 342 394 23,400 -1,320 Descending New York Center
01:51PM 41.4611 -74.0017 215° Southwest 349 402 21,500 -1,740 Descending New York Center
01:52PM 41.3800 -74.0725 213° Southwest 355 409 20,000 -780 Descending New York Center
01:53PM 41.2989 -74.1431 213° Southwest 355 409 20,000 -420 Level New York Center
01:54PM 41.2200 -74.2053 211° Southwest 352 405 19,200 -540 Descending New York Center
01:55PM 41.1494 -74.2678 214° Southwest 325 374 19,000 -120 Descending New York Center
01:56PM 41.0711 -74.3106 202° Southwest 312 359 19,000  Level New York Center
01:57PM 40.9903 -74.2292 143° Southeast 310 357 19,000  Level New York Center
01:58PM 40.9136 -74.1403 139° Southeast 348 400 19,000 -720 Level New York Center
01:59PM 40.8361 -74.0842 151° Southeast 367 422 17,600 -1,680 Descending New York Center
02:01PM 40.7000 -74.0167 159° South 337 388 15,200 -1,740 Descending New York TRACON
02:02PM 40.6167 -73.9833 163° South 329 379 13,600 -1,620 Descending New York TRACON
02:03PM 40.5500 -73.9333 150° Southeast 323 372 12,000 -1,680 Descending New York TRACON
02:04PM 40.4667 -73.8667 149° Southeast 313 360 10,300 -1,680 Descending New York TRACON
02:05PM 40.4000 -73.7833 136° Southeast 306 352 8,700 -1,620 Descending New York TRACON
02:06PM 40.3500 -73.7000 128° Southeast 309 356 6,900 -1,560 Descending New York TRACON
02:07PM 40.3333 -73.6000 102° East 296 341 5,500 -1,380 Descending New York TRACON
02:07PM 40.3350 -73.5536 87° East 284 327 4,800 -1,560 Descending New York Center
02:08PM 40.3931 -73.4825 43° Northeast 237 273 3,100 -900 Descending New York Center
02:09PM 40.4519 -73.4547 20° North 226 260 3,000 -60 Descending New York Center
02:10PM 40.5081 -73.4706 348° North 197 227 3,000  Level New York Center
02:11PM 40.5358 -73.5236 305° West 169 194 3,000  Level New York Center
02:13PM 40.5667 -73.6000 298° West 169 194 3,000 -420 Level New York TRACON
02:14PM 40.6000 -73.6500 311° West 165 190 2,100 -900 Descending New York TRACON
02:15PM 40.6167 -73.7000 294° West 134 154 1,300 -840 Descending New York TRACON
02:16PM 40.6333 -73.7333 303° West 130 150 600 -780 Descending New York TRACON